Time;durP1;ratioP1;P1;durP2;ratioP2;P2;SDS_P1;SDS_P2;PMS_P1;PMS_P2;Temp;Humidity;BMP_temperature;BMP_pressure;BME280_temperature;BME280_humidity;BME280_pressure;Samples;Min_cycle;Max_cycle;Signal;HPM_P1;HPM_P2
2021/12/18 00:00:59;;;;;;;;;;;20.60;35.70;;;;;;482827;246;1364;-46
2021/12/18 00:03:00;;;;;;;;;;;20.60;35.70;;;;;;482926;246;2238;-46
2021/12/18 00:05:01;;;;;;;;;;;20.60;35.70;;;;;;482763;246;1028;-46
2021/12/18 00:07:03;;;;;;;;;;;20.70;35.80;;;;;;482941;246;1164;-46
2021/12/18 00:09:04;;;;;;;;;;;20.70;35.80;;;;;;482640;246;1048;-47
2021/12/18 00:11:05;;;;;;;;;;;20.60;35.80;;;;;;482635;243;1290;-46
2021/12/18 00:13:06;;;;;;;;;;;20.60;35.80;;;;;;482824;246;2211;-46
2021/12/18 00:15:08;;;;;;;;;;;20.70;35.70;;;;;;482900;246;1145;-46
2021/12/18 00:17:09;;;;;;;;;;;20.60;35.70;;;;;;482691;246;1162;-47
2021/12/18 00:19:10;;;;;;;;;;;20.60;35.70;;;;;;482967;246;1057;-46
2021/12/18 00:21:14;;;;;;;;;;;20.60;35.70;;;;;;482945;246;1361;-46
2021/12/18 00:23:13;;;;;;;;;;;20.60;35.80;;;;;;482957;246;2199;-47
2021/12/18 00:25:15;;;;;;;;;;;20.60;35.80;;;;;;482571;247;2148;-46
2021/12/18 00:27:16;;;;;;;;;;;20.60;35.70;;;;;;482705;247;1013;-46
2021/12/18 00:29:17;;;;;;;;;;;20.60;35.80;;;;;;482296;246;1090;-46
2021/12/18 00:31:19;;;;;;;;;;;20.60;35.80;;;;;;482170;246;1246;-46
2021/12/18 00:33:20;;;;;;;;;;;20.60;35.80;;;;;;482215;246;2192;-46
2021/12/18 00:35:21;;;;;;;;;;;20.60;35.80;;;;;;482610;246;996;-46
2021/12/18 00:37:23;;;;;;;;;;;20.60;35.80;;;;;;482369;246;1184;-46
2021/12/18 00:39:24;;;;;;;;;;;20.60;35.80;;;;;;482257;246;1030;-47
2021/12/18 00:41:46;;;;;;;;;;;20.60;35.80;;;;;;482302;246;1302;-47
2021/12/18 00:43:33;;;;;;;;;;;20.60;35.70;;;;;;481351;247;1567;-46
2021/12/18 00:45:31;;;;;;;;;;;20.60;35.70;;;;;;482023;247;2409;-46
2021/12/18 00:47:32;;;;;;;;;;;20.60;35.70;;;;;;482246;246;1258;-46
2021/12/18 00:49:34;;;;;;;;;;;20.60;35.80;;;;;;482300;246;1181;-46
2021/12/18 00:51:35;;;;;;;;;;;20.60;35.80;;;;;;482455;246;1194;-47
2021/12/18 00:53:36;;;;;;;;;;;20.60;35.80;;;;;;482254;246;2130;-46
2021/12/18 00:55:38;;;;;;;;;;;20.60;35.80;;;;;;482607;246;1107;-47
2021/12/18 00:57:39;;;;;;;;;;;20.60;35.90;;;;;;482575;246;1249;-46
2021/12/18 00:59:40;;;;;;;;;;;20.50;35.70;;;;;;482259;246;1107;-46
2021/12/18 01:01:42;;;;;;;;;;;20.60;35.70;;;;;;482180;246;1394;-46
2021/12/18 01:03:44;;;;;;;;;;;20.60;35.80;;;;;;482593;246;1071;-46
2021/12/18 01:05:44;;;;;;;;;;;20.50;35.80;;;;;;482162;247;2262;-47
2021/12/18 01:07:45;;;;;;;;;;;20.60;35.80;;;;;;482270;246;1299;-47
2021/12/18 01:09:58;;;;;;;;;;;20.50;35.80;;;;;;482274;246;1077;-46
2021/12/18 01:11:49;;;;;;;;;;;20.50;35.80;;;;;;481804;247;2293;-47
2021/12/18 01:14:05;;;;;;;;;;;20.50;35.80;;;;;;482708;246;2214;-46
2021/12/18 01:15:56;;;;;;;;;;;20.50;35.80;;;;;;481341;247;2381;-46
2021/12/18 01:22:48;;;;;;;;;;;20.50;35.80;;;;;;482621;247;1048;-46
2021/12/18 01:24:47;;;;;;;;;;;20.50;35.90;;;;;;482160;246;1310;-46
2021/12/18 01:26:49;;;;;;;;;;;20.50;35.70;;;;;;482206;246;1238;-46
2021/12/18 01:28:50;;;;;;;;;;;20.50;35.80;;;;;;482308;246;1035;-45
2021/12/18 01:30:51;;;;;;;;;;;20.50;35.70;;;;;;482646;246;1150;-46
2021/12/18 01:32:54;;;;;;;;;;;20.50;35.80;;;;;;482211;246;2153;-46
2021/12/18 01:34:54;;;;;;;;;;;20.50;35.80;;;;;;482401;247;1499;-46
2021/12/18 01:36:55;;;;;;;;;;;20.50;35.90;;;;;;482176;246;1239;-46
2021/12/18 01:38:57;;;;;;;;;;;20.50;35.80;;;;;;482444;246;1125;-46
2021/12/18 01:40:58;;;;;;;;;;;20.40;35.90;;;;;;482284;246;1425;-46
2021/12/18 01:45:25;;;;;;;;;;;20.40;35.80;;;;;;482257;247;1032;-46
2021/12/18 01:52:04;;;;;;;;;;;20.50;35.90;;;;;;482130;247;1552;-47
2021/12/18 01:54:02;;;;;;;;;;;20.50;35.80;;;;;;482251;247;2129;-46
2021/12/18 01:56:03;;;;;;;;;;;20.40;35.80;;;;;;482338;246;1414;-46
2021/12/18 01:58:05;;;;;;;;;;;20.40;35.90;;;;;;482200;246;1185;-46
2021/12/18 02:00:06;;;;;;;;;;;20.40;35.80;;;;;;482373;246;1242;-46
2021/12/18 02:02:07;;;;;;;;;;;20.40;35.80;;;;;;482136;246;1189;-46
2021/12/18 02:04:09;;;;;;;;;;;20.40;35.80;;;;;;482694;246;1203;-46
2021/12/18 02:06:10;;;;;;;;;;;20.50;35.80;;;;;;482270;246;1216;-46
2021/12/18 02:08:11;;;;;;;;;;;20.50;35.90;;;;;;482215;246;1252;-46
2021/12/18 02:10:18;;;;;;;;;;;20.40;35.80;;;;;;482442;246;1057;-46
2021/12/18 02:12:18;;;;;;;;;;;20.40;35.80;;;;;;482099;247;2306;-46
2021/12/18 02:14:35;;;;;;;;;;;20.40;35.80;;;;;;482272;247;2405;-46
2021/12/18 02:21:07;;;;;;;;;;;20.40;35.80;;;;;;467451;247;1324;-46
2021/12/18 02:23:05;;;;;;;;;;;20.40;35.90;;;;;;482116;247;1913;-46
2021/12/18 02:25:06;;;;;;;;;;;20.40;35.80;;;;;;482544;246;1104;-46
2021/12/18 02:27:08;;;;;;;;;;;20.40;35.80;;;;;;482208;246;1251;-46
2021/12/18 02:29:13;;;;;;;;;;;20.50;35.80;;;;;;482259;246;1288;-46
2021/12/18 02:31:10;;;;;;;;;;;20.40;35.90;;;;;;481932;247;2188;-46
2021/12/18 02:33:12;;;;;;;;;;;20.40;35.80;;;;;;482295;246;2195;-46
2021/12/18 02:35:15;;;;;;;;;;;20.40;35.80;;;;;;482697;246;968;-45
2021/12/18 02:37:15;;;;;;;;;;;20.40;35.90;;;;;;482250;247;2174;-46
2021/12/18 02:39:24;;;;;;;;;;;20.40;35.80;;;;;;482448;246;1211;-46
2021/12/18 02:41:27;;;;;;;;;;;20.40;35.80;;;;;;482014;247;2160;-46
2021/12/18 02:43:24;;;;;;;;;;;20.40;35.90;;;;;;481998;247;2136;-46
2021/12/18 02:45:25;;;;;;;;;;;20.40;35.90;;;;;;482629;246;1059;-46
2021/12/18 02:47:27;;;;;;;;;;;20.40;35.90;;;;;;482383;246;1117;-46
2021/12/18 02:49:28;;;;;;;;;;;20.40;35.90;;;;;;482288;246;1144;-46
2021/12/18 02:51:29;;;;;;;;;;;20.40;35.90;;;;;;482427;246;1240;-46
2021/12/18 02:53:31;;;;;;;;;;;20.40;35.90;;;;;;482701;246;2196;-46
2021/12/18 02:55:32;;;;;;;;;;;20.40;35.90;;;;;;482704;246;1098;-46
2021/12/18 02:57:33;;;;;;;;;;;20.40;35.90;;;;;;482465;246;1241;-46
2021/12/18 02:59:35;;;;;;;;;;;20.40;35.90;;;;;;482287;246;1082;-47
2021/12/18 03:01:36;;;;;;;;;;;20.40;35.80;;;;;;482320;246;1326;-47
2021/12/18 03:03:40;;;;;;;;;;;20.30;35.90;;;;;;482263;246;1336;-46
2021/12/18 03:05:46;;;;;;;;;;;20.40;35.90;;;;;;482425;247;2406;-46
2021/12/18 03:07:40;;;;;;;;;;;20.40;35.90;;;;;;481826;247;2178;-46
2021/12/18 03:18:58;;;;;;;;;;;20.40;35.90;;;;;;482252;246;1182;-46
2021/12/18 03:22:23;;;;;;;;;;;20.40;35.80;;;;;;466106;247;1328;-46
2021/12/18 03:24:07;;;;;;;;;;;20.40;35.80;;;;;;481200;247;1282;-46
2021/12/18 03:25:56;;;;;;;;;;;20.40;35.90;;;;;;481188;247;2222;-46
2021/12/18 03:27:53;;;;;;;;;;;20.40;35.90;;;;;;481980;247;2296;-46
2021/12/18 03:29:55;;;;;;;;;;;20.40;35.80;;;;;;482348;246;970;-46
2021/12/18 03:31:56;;;;;;;;;;;20.40;35.80;;;;;;482498;246;1332;-46
2021/12/18 03:33:57;;;;;;;;;;;20.40;35.80;;;;;;482272;246;2197;-46
2021/12/18 03:35:59;;;;;;;;;;;20.40;35.90;;;;;;482247;246;1259;-46
2021/12/18 03:38:00;;;;;;;;;;;20.40;35.80;;;;;;482527;246;1080;-46
2021/12/18 03:40:02;;;;;;;;;;;20.30;35.80;;;;;;482763;246;1023;-46
2021/12/18 03:42:04;;;;;;;;;;;20.40;35.90;;;;;;482526;246;1175;-46
2021/12/18 03:44:04;;;;;;;;;;;20.30;35.90;;;;;;482223;246;2350;-46
2021/12/18 03:46:06;;;;;;;;;;;20.30;35.90;;;;;;482674;246;1265;-46
2021/12/18 03:48:07;;;;;;;;;;;20.30;35.90;;;;;;482513;246;1189;-46
2021/12/18 03:50:08;;;;;;;;;;;20.40;35.90;;;;;;482475;246;1481;-46
2021/12/18 03:52:09;;;;;;;;;;;20.30;35.80;;;;;;482302;246;1289;-46
2021/12/18 03:54:11;;;;;;;;;;;20.30;35.90;;;;;;482232;246;2193;-46
2021/12/18 03:56:12;;;;;;;;;;;20.40;35.90;;;;;;482234;246;1231;-47
2021/12/18 03:58:13;;;;;;;;;;;20.40;35.90;;;;;;482294;246;1214;-46
2021/12/18 04:00:15;;;;;;;;;;;20.40;35.90;;;;;;482458;246;1244;-46
2021/12/18 04:02:16;;;;;;;;;;;20.30;35.90;;;;;;482151;246;1271;-46
2021/12/18 04:04:17;;;;;;;;;;;20.40;35.80;;;;;;482226;246;1172;-46
2021/12/18 04:06:19;;;;;;;;;;;20.40;35.90;;;;;;482420;246;1306;-46
2021/12/18 04:08:20;;;;;;;;;;;20.30;35.90;;;;;;482539;247;1208;-46
2021/12/18 04:10:21;;;;;;;;;;;20.40;35.90;;;;;;482728;246;990;-46
2021/12/18 04:12:23;;;;;;;;;;;20.40;35.80;;;;;;482201;246;1225;-46
2021/12/18 04:14:24;;;;;;;;;;;20.40;35.80;;;;;;482702;246;2193;-46
2021/12/18 04:16:25;;;;;;;;;;;20.40;35.80;;;;;;482468;246;1235;-46
2021/12/18 04:18:27;;;;;;;;;;;20.30;35.80;;;;;;482468;246;1247;-46
2021/12/18 04:20:28;;;;;;;;;;;20.40;35.80;;;;;;482280;246;1077;-46
2021/12/18 04:22:29;;;;;;;;;;;20.30;35.80;;;;;;482467;246;1109;-46
2021/12/18 04:24:30;;;;;;;;;;;20.40;35.80;;;;;;482476;246;1168;-46
2021/12/18 04:26:32;;;;;;;;;;;20.40;35.80;;;;;;482357;246;1142;-46
2021/12/18 04:28:33;;;;;;;;;;;20.40;35.80;;;;;;482218;246;965;-46
2021/12/18 04:30:34;;;;;;;;;;;20.30;35.80;;;;;;482214;246;1225;-46
2021/12/18 04:32:36;;;;;;;;;;;20.40;35.80;;;;;;482344;246;1156;-46
2021/12/18 04:34:37;;;;;;;;;;;20.30;35.80;;;;;;482287;246;2200;-46
2021/12/18 04:36:38;;;;;;;;;;;20.30;35.90;;;;;;482267;246;1160;-46
2021/12/18 04:38:40;;;;;;;;;;;20.30;35.90;;;;;;482709;246;968;-46
2021/12/18 04:40:43;;;;;;;;;;;20.40;35.80;;;;;;482291;246;1114;-46
2021/12/18 04:42:42;;;;;;;;;;;20.40;35.80;;;;;;482096;246;2372;-46
2021/12/18 04:44:44;;;;;;;;;;;20.40;35.70;;;;;;482202;246;1192;-45
2021/12/18 04:46:45;;;;;;;;;;;20.30;35.80;;;;;;482258;246;1076;-47
2021/12/18 04:48:46;;;;;;;;;;;20.30;35.80;;;;;;482259;246;1249;-46
2021/12/18 04:50:48;;;;;;;;;;;20.30;35.90;;;;;;482327;246;1008;-46
2021/12/18 04:52:49;;;;;;;;;;;20.30;35.90;;;;;;482376;246;1060;-46
2021/12/18 04:54:50;;;;;;;;;;;20.30;35.90;;;;;;482693;246;2193;-46
2021/12/18 04:56:52;;;;;;;;;;;20.30;35.80;;;;;;482403;246;1353;-46
2021/12/18 04:58:53;;;;;;;;;;;20.40;35.80;;;;;;482434;246;1341;-47
2021/12/18 05:00:55;;;;;;;;;;;20.30;35.90;;;;;;482214;246;1050;-46
2021/12/18 05:02:56;;;;;;;;;;;20.30;35.80;;;;;;482243;246;2040;-46
2021/12/18 05:04:57;;;;;;;;;;;20.30;35.70;;;;;;482280;246;1081;-47
2021/12/18 05:06:58;;;;;;;;;;;20.30;35.80;;;;;;482638;246;1150;-46
2021/12/18 05:08:59;;;;;;;;;;;20.30;35.80;;;;;;482289;246;1054;-46
2021/12/18 05:11:01;;;;;;;;;;;20.30;35.90;;;;;;482238;246;1236;-47
2021/12/18 05:13:02;;;;;;;;;;;20.40;35.90;;;;;;482645;246;1039;-46
2021/12/18 05:15:03;;;;;;;;;;;20.30;35.90;;;;;;482680;246;2181;-46
2021/12/18 05:17:05;;;;;;;;;;;20.30;35.80;;;;;;482276;246;1126;-46
2021/12/18 05:19:06;;;;;;;;;;;20.30;35.80;;;;;;482245;246;1222;-46
2021/12/18 05:21:07;;;;;;;;;;;20.30;35.80;;;;;;482305;246;1262;-46
2021/12/18 05:23:09;;;;;;;;;;;20.30;35.80;;;;;;482432;246;1118;-46
2021/12/18 05:25:10;;;;;;;;;;;20.30;35.80;;;;;;482328;246;1231;-47
2021/12/18 05:27:11;;;;;;;;;;;20.30;35.70;;;;;;482706;246;1355;-46
2021/12/18 05:29:13;;;;;;;;;;;20.30;35.70;;;;;;482329;246;1260;-47
2021/12/18 05:31:16;;;;;;;;;;;20.30;35.80;;;;;;482197;246;1159;-46
2021/12/18 05:33:15;;;;;;;;;;;20.30;35.90;;;;;;482128;247;1978;-46
2021/12/18 05:35:17;;;;;;;;;;;20.30;35.90;;;;;;482314;246;2123;-46
2021/12/18 05:37:20;;;;;;;;;;;20.30;35.80;;;;;;482678;246;1346;-46
2021/12/18 05:39:20;;;;;;;;;;;20.30;35.80;;;;;;482619;247;2338;-46
2021/12/18 05:41:21;;;;;;;;;;;20.30;35.80;;;;;;482339;246;1297;-46
2021/12/18 05:43:22;;;;;;;;;;;20.30;35.80;;;;;;482269;246;1283;-46
2021/12/18 05:45:24;;;;;;;;;;;20.30;35.80;;;;;;482254;246;1193;-46
2021/12/18 05:47:25;;;;;;;;;;;20.30;35.90;;;;;;482118;246;1160;-46
2021/12/18 05:49:26;;;;;;;;;;;20.30;35.90;;;;;;482239;246;1179;-46
2021/12/18 05:51:28;;;;;;;;;;;20.30;35.90;;;;;;482263;246;1286;-46
2021/12/18 05:53:29;;;;;;;;;;;20.30;35.80;;;;;;482393;246;1020;-46
2021/12/18 05:55:30;;;;;;;;;;;20.30;35.80;;;;;;482293;246;2130;-46
2021/12/18 05:57:32;;;;;;;;;;;20.30;35.80;;;;;;482223;246;1154;-46
2021/12/18 05:59:33;;;;;;;;;;;20.30;35.80;;;;;;482430;246;1244;-46
2021/12/18 06:01:34;;;;;;;;;;;20.30;35.80;;;;;;482650;246;1322;-46
2021/12/18 06:03:35;;;;;;;;;;;20.30;35.80;;;;;;482551;246;1217;-46
2021/12/18 06:05:37;;;;;;;;;;;20.30;35.90;;;;;;482701;246;1019;-46
2021/12/18 06:07:52;;;;;;;;;;;20.30;35.80;;;;;;482602;246;1193;-46
2021/12/18 06:09:40;;;;;;;;;;;20.30;35.80;;;;;;481840;247;2186;-46
2021/12/18 06:11:42;;;;;;;;;;;20.30;35.80;;;;;;482494;240;1752;-46
2021/12/18 06:13:43;;;;;;;;;;;20.30;35.80;;;;;;482286;247;2414;-46
2021/12/18 06:15:44;;;;;;;;;;;20.30;35.80;;;;;;482229;246;2193;-46
2021/12/18 06:17:46;;;;;;;;;;;20.30;35.80;;;;;;482195;246;1395;-46
2021/12/18 06:19:47;;;;;;;;;;;20.30;35.70;;;;;;482231;246;1217;-46
2021/12/18 06:21:48;;;;;;;;;;;20.30;35.70;;;;;;482648;246;1222;-46
2021/12/18 06:23:50;;;;;;;;;;;20.30;35.70;;;;;;482527;246;1118;-46
2021/12/18 06:25:51;;;;;;;;;;;20.30;35.80;;;;;;482647;246;1296;-46
2021/12/18 06:27:52;;;;;;;;;;;20.30;35.90;;;;;;482149;246;1229;-46
2021/12/18 06:29:54;;;;;;;;;;;20.30;35.80;;;;;;482586;246;1020;-46
2021/12/18 06:31:55;;;;;;;;;;;20.30;35.90;;;;;;482355;246;1327;-46
2021/12/18 06:33:56;;;;;;;;;;;20.30;35.90;;;;;;482723;246;1201;-47
2021/12/18 06:35:57;;;;;;;;;;;20.20;35.80;;;;;;482706;246;2122;-46
2021/12/18 06:37:59;;;;;;;;;;;20.30;35.90;;;;;;482488;246;1140;-46
2021/12/18 06:40:00;;;;;;;;;;;20.20;35.80;;;;;;482346;246;1098;-46
2021/12/18 06:42:01;;;;;;;;;;;20.20;35.90;;;;;;482402;246;1212;-46
2021/12/18 06:44:03;;;;;;;;;;;20.30;35.90;;;;;;482482;246;1259;-46
2021/12/18 06:46:06;;;;;;;;;;;20.20;35.80;;;;;;482457;246;1364;-46
2021/12/18 06:48:06;;;;;;;;;;;20.20;35.90;;;;;;482636;247;2354;-46
2021/12/18 06:50:07;;;;;;;;;;;20.30;35.70;;;;;;482514;246;1173;-46
2021/12/18 06:52:08;;;;;;;;;;;20.60;35.40;;;;;;482216;246;1197;-46
2021/12/18 06:54:10;;;;;;;;;;;20.80;35.00;;;;;;482468;246;1079;-46
2021/12/18 06:56:11;;;;;;;;;;;21.00;34.70;;;;;;482203;246;2118;-47
2021/12/18 06:58:12;;;;;;;;;;;21.10;34.40;;;;;;482234;246;1032;-46
2021/12/18 07:00:13;;;;;;;;;;;21.20;34.20;;;;;;482398;246;1271;-46
2021/12/18 07:02:15;;;;;;;;;;;21.30;34.00;;;;;;482162;246;1282;-47
2021/12/18 07:04:16;;;;;;;;;;;21.40;33.90;;;;;;482642;246;1138;-47
2021/12/18 07:06:17;;;;;;;;;;;21.40;33.90;;;;;;482390;246;1238;-47
2021/12/18 07:08:19;;;;;;;;;;;21.50;33.80;;;;;;482271;246;1085;-46
2021/12/18 07:10:20;;;;;;;;;;;21.60;33.70;;;;;;482635;246;1045;-46
2021/12/18 07:12:22;;;;;;;;;;;21.60;33.60;;;;;;482352;246;1330;-47
2021/12/18 07:14:23;;;;;;;;;;;21.60;33.50;;;;;;482272;246;1041;-47
2021/12/18 07:16:24;;;;;;;;;;;21.70;33.50;;;;;;482110;246;2117;-47
2021/12/18 07:18:26;;;;;;;;;;;21.70;33.40;;;;;;482325;246;1077;-46
2021/12/18 07:20:28;;;;;;;;;;;21.80;33.40;;;;;;482480;246;1160;-46
2021/12/18 07:22:29;;;;;;;;;;;21.80;33.40;;;;;;482327;246;1591;-46
2021/12/18 07:24:30;;;;;;;;;;;21.80;33.30;;;;;;482330;246;1269;-47
2021/12/18 07:26:32;;;;;;;;;;;21.90;33.30;;;;;;482628;246;1202;-47
2021/12/18 07:28:33;;;;;;;;;;;21.80;33.20;;;;;;482502;246;2024;-47
2021/12/18 07:30:34;;;;;;;;;;;21.90;33.20;;;;;;482490;246;1043;-47
2021/12/18 07:32:36;;;;;;;;;;;21.90;33.10;;;;;;482380;246;1199;-47
2021/12/18 07:34:37;;;;;;;;;;;22.00;33.10;;;;;;482364;246;1300;-47
2021/12/18 07:36:38;;;;;;;;;;;22.00;33.10;;;;;;482413;246;2138;-47
2021/12/18 07:38:39;;;;;;;;;;;22.00;33.00;;;;;;482223;246;1086;-47
2021/12/18 07:40:41;;;;;;;;;;;22.00;33.00;;;;;;482243;246;1211;-47
2021/12/18 07:42:42;;;;;;;;;;;22.00;32.90;;;;;;482646;246;1020;-47
2021/12/18 07:44:43;;;;;;;;;;;22.00;32.90;;;;;;482221;246;1086;-46
2021/12/18 07:46:45;;;;;;;;;;;22.10;32.90;;;;;;482260;246;1198;-47
2021/12/18 07:48:46;;;;;;;;;;;22.10;32.90;;;;;;482281;246;1033;-46
2021/12/18 07:50:47;;;;;;;;;;;22.10;32.90;;;;;;482240;246;1549;-47
2021/12/18 07:52:49;;;;;;;;;;;22.20;32.90;;;;;;482673;246;1150;-47
2021/12/18 07:54:50;;;;;;;;;;;22.20;32.80;;;;;;482559;246;1242;-47
2021/12/18 07:56:51;;;;;;;;;;;22.20;32.80;;;;;;482258;246;2201;-47
2021/12/18 07:58:53;;;;;;;;;;;22.20;32.80;;;;;;482298;246;988;-46
2021/12/18 08:00:54;;;;;;;;;;;22.20;32.70;;;;;;482196;246;1333;-47
2021/12/18 08:02:55;;;;;;;;;;;22.20;32.70;;;;;;482320;246;1270;-47
2021/12/18 08:04:57;;;;;;;;;;;22.20;32.70;;;;;;482706;246;1155;-46
2021/12/18 08:06:58;;;;;;;;;;;22.20;32.70;;;;;;482096;246;1272;-47
2021/12/18 08:08:59;;;;;;;;;;;22.20;32.70;;;;;;482222;246;1079;-47
2021/12/18 08:11:00;;;;;;;;;;;22.30;32.70;;;;;;482231;246;1506;-46
2021/12/18 08:13:02;;;;;;;;;;;22.30;32.70;;;;;;482200;246;1308;-47
2021/12/18 08:15:03;;;;;;;;;;;22.30;32.70;;;;;;482256;246;2182;-47
2021/12/18 08:17:05;;;;;;;;;;;22.30;32.70;;;;;;482179;246;1344;-47
2021/12/18 08:19:06;;;;;;;;;;;22.30;32.60;;;;;;482336;246;1312;-46
2021/12/18 08:21:07;;;;;;;;;;;22.30;32.60;;;;;;482394;246;1318;-47
2021/12/18 08:23:09;;;;;;;;;;;22.30;32.60;;;;;;482245;246;1133;-47
2021/12/18 08:25:10;;;;;;;;;;;22.40;32.60;;;;;;482583;246;1242;-47
2021/12/18 08:27:12;;;;;;;;;;;22.40;32.50;;;;;;482196;246;1228;-47
2021/12/18 08:29:13;;;;;;;;;;;22.40;32.60;;;;;;482352;246;2393;-46
2021/12/18 08:31:14;;;;;;;;;;;22.40;32.60;;;;;;482339;246;1170;-47
2021/12/18 08:33:15;;;;;;;;;;;22.40;32.60;;;;;;482689;246;1209;-46
2021/12/18 08:35:17;;;;;;;;;;;22.40;32.50;;;;;;482573;246;2192;-46
2021/12/18 08:37:19;;;;;;;;;;;22.40;32.50;;;;;;482284;246;1558;-46
2021/12/18 08:39:19;;;;;;;;;;;22.50;32.50;;;;;;482661;246;2443;-46
2021/12/18 08:41:21;;;;;;;;;;;22.40;32.50;;;;;;482244;246;1121;-47
2021/12/18 08:43:23;;;;;;;;;;;22.40;32.50;;;;;;482681;247;2445;-47
2021/12/18 08:45:23;;;;;;;;;;;22.50;32.50;;;;;;482178;246;2468;-46
2021/12/18 08:47:25;;;;;;;;;;;22.50;32.50;;;;;;482205;246;1212;-47
2021/12/18 08:49:26;;;;;;;;;;;22.50;32.40;;;;;;482261;246;1281;-47
2021/12/18 08:51:27;;;;;;;;;;;22.50;32.50;;;;;;482213;246;1294;-47
2021/12/18 08:53:29;;;;;;;;;;;22.50;32.50;;;;;;482298;246;964;-46
2021/12/18 08:55:30;;;;;;;;;;;22.60;32.50;;;;;;482649;246;2121;-47
2021/12/18 08:57:31;;;;;;;;;;;22.50;32.40;;;;;;482496;246;1555;-46
2021/12/18 08:59:32;;;;;;;;;;;22.60;32.40;;;;;;482642;246;1326;-47
2021/12/18 09:01:34;;;;;;;;;;;22.60;32.50;;;;;;482557;246;1413;-47
2021/12/18 09:03:35;;;;;;;;;;;22.60;32.50;;;;;;482524;246;1170;-47
2021/12/18 09:05:36;;;;;;;;;;;22.60;32.40;;;;;;482620;246;1344;-47
2021/12/18 09:07:38;;;;;;;;;;;22.60;32.40;;;;;;482285;246;1344;-47
2021/12/18 09:09:39;;;;;;;;;;;22.60;32.40;;;;;;482640;246;1107;-47
2021/12/18 09:11:40;;;;;;;;;;;22.60;32.40;;;;;;482232;246;1106;-47
2021/12/18 09:13:42;;;;;;;;;;;22.60;32.40;;;;;;482357;246;1195;-47
2021/12/18 09:15:43;;;;;;;;;;;22.60;32.40;;;;;;482283;246;2181;-47
2021/12/18 09:17:44;;;;;;;;;;;22.60;32.30;;;;;;482195;246;1328;-47
2021/12/18 09:19:46;;;;;;;;;;;22.60;32.30;;;;;;482736;246;1152;-46
2021/12/18 09:21:47;;;;;;;;;;;22.60;32.40;;;;;;482406;246;1190;-47
2021/12/18 09:23:48;;;;;;;;;;;22.70;32.30;;;;;;482731;246;1359;-47
2021/12/18 09:25:50;;;;;;;;;;;22.70;32.40;;;;;;482677;246;1075;-46
2021/12/18 09:27:51;;;;;;;;;;;22.70;32.30;;;;;;482424;246;1188;-47
2021/12/18 09:29:53;;;;;;;;;;;22.70;32.30;;;;;;482341;246;1059;-47
2021/12/18 09:31:54;;;;;;;;;;;22.70;32.30;;;;;;482661;246;1193;-47
2021/12/18 09:33:55;;;;;;;;;;;22.70;32.30;;;;;;482304;246;1185;-47
2021/12/18 09:35:57;;;;;;;;;;;22.60;32.40;;;;;;482280;246;2185;-47
2021/12/18 09:37:58;;;;;;;;;;;22.50;32.60;;;;;;482300;246;1291;-46
2021/12/18 09:39:59;;;;;;;;;;;22.20;32.90;;;;;;482615;246;1096;-47
2021/12/18 09:42:01;;;;;;;;;;;22.10;33.30;;;;;;482269;246;1219;-46
2021/12/18 09:44:02;;;;;;;;;;;21.90;33.50;;;;;;482690;246;1143;-47
2021/12/18 09:46:03;;;;;;;;;;;21.70;33.80;;;;;;482431;246;1452;-46
2021/12/18 09:48:05;;;;;;;;;;;21.60;34.00;;;;;;482300;246;1075;-47
2021/12/18 09:50:06;;;;;;;;;;;21.60;34.10;;;;;;482740;246;1070;-47
2021/12/18 09:52:07;;;;;;;;;;;21.50;34.20;;;;;;482267;246;1240;-46
2021/12/18 09:54:09;;;;;;;;;;;21.50;34.40;;;;;;482754;246;1051;-46
2021/12/18 09:56:10;;;;;;;;;;;21.40;34.40;;;;;;482376;246;2126;-46
2021/12/18 09:58:11;;;;;;;;;;;21.40;34.60;;;;;;482490;246;1197;-46
2021/12/18 10:00:13;;;;;;;;;;;21.30;34.60;;;;;;482273;246;1194;-46
2021/12/18 10:02:14;;;;;;;;;;;21.30;34.70;;;;;;482454;246;1348;-46
2021/12/18 10:04:15;;;;;;;;;;;21.30;34.70;;;;;;482312;246;1029;-46
2021/12/18 10:06:17;;;;;;;;;;;21.30;34.70;;;;;;482270;246;1296;-46
2021/12/18 10:08:18;;;;;;;;;;;21.10;34.80;;;;;;482271;246;1048;-47
2021/12/18 10:10:19;;;;;;;;;;;21.20;34.90;;;;;;482289;246;1038;-47
2021/12/18 10:12:21;;;;;;;;;;;21.20;34.90;;;;;;482295;246;1324;-46
2021/12/18 10:14:22;;;;;;;;;;;21.10;34.90;;;;;;482737;246;1069;-46
2021/12/18 10:16:23;;;;;;;;;;;21.10;35.00;;;;;;482496;246;2180;-47
2021/12/18 10:18:25;;;;;;;;;;;21.00;35.00;;;;;;482417;246;1107;-46
2021/12/18 10:20:26;;;;;;;;;;;21.10;35.00;;;;;;482264;246;1018;-46
2021/12/18 10:22:27;;;;;;;;;;;21.00;35.00;;;;;;482263;246;1218;-46
2021/12/18 10:24:29;;;;;;;;;;;21.10;35.00;;;;;;482577;246;1054;-46
2021/12/18 10:26:30;;;;;;;;;;;21.00;35.10;;;;;;482645;243;1127;-46
2021/12/18 10:28:31;;;;;;;;;;;21.00;35.20;;;;;;482408;246;1210;-46
2021/12/18 10:30:32;;;;;;;;;;;20.90;35.20;;;;;;482333;246;1139;-46
2021/12/18 10:32:34;;;;;;;;;;;20.90;35.10;;;;;;482227;246;1213;-46
2021/12/18 10:34:35;;;;;;;;;;;20.90;35.10;;;;;;482356;246;1075;-46
2021/12/18 10:36:36;;;;;;;;;;;20.90;35.10;;;;;;482612;246;2241;-46
2021/12/18 10:38:38;;;;;;;;;;;20.90;35.20;;;;;;482539;246;1041;-46
2021/12/18 10:40:39;;;;;;;;;;;20.90;35.20;;;;;;482410;246;1037;-46
2021/12/18 10:42:41;;;;;;;;;;;20.90;35.20;;;;;;482249;246;1144;-46
2021/12/18 10:44:42;;;;;;;;;;;20.90;35.20;;;;;;482311;246;1064;-46
2021/12/18 10:46:43;;;;;;;;;;;20.90;35.30;;;;;;482182;246;1378;-46
2021/12/18 10:48:45;;;;;;;;;;;20.80;35.30;;;;;;482249;246;1073;-46
2021/12/18 10:50:46;;;;;;;;;;;20.90;35.30;;;;;;482322;246;1061;-46
2021/12/18 10:52:47;;;;;;;;;;;20.80;35.30;;;;;;482181;246;1660;-47
2021/12/18 10:54:48;;;;;;;;;;;20.90;35.30;;;;;;482375;246;1080;-46
2021/12/18 10:56:51;;;;;;;;;;;20.80;35.30;;;;;;482343;246;2200;-46
2021/12/18 10:58:52;;;;;;;;;;;20.80;35.30;;;;;;482397;246;1053;-46
2021/12/18 11:00:54;;;;;;;;;;;20.90;35.30;;;;;;482480;246;1143;-46
2021/12/18 11:02:55;;;;;;;;;;;20.80;35.20;;;;;;482325;247;2241;-46
2021/12/18 11:04:56;;;;;;;;;;;20.80;35.30;;;;;;482260;246;1011;-46
2021/12/18 11:06:57;;;;;;;;;;;20.80;35.30;;;;;;482327;246;1332;-46
2021/12/18 11:09:00;;;;;;;;;;;20.80;35.30;;;;;;482535;246;1060;-46
2021/12/18 11:13:38;;;;;;;;;;;20.80;35.30;;;;;;482075;247;1496;-46
2021/12/18 11:15:21;;;;;;;;;;;20.80;35.30;;;;;;482680;247;2029;-46
2021/12/18 11:17:22;;;;;;;;;;;20.80;35.30;;;;;;482258;246;2177;-46
2021/12/18 11:19:23;;;;;;;;;;;20.80;35.30;;;;;;482298;246;1090;-46
2021/12/18 11:21:25;;;;;;;;;;;20.80;35.40;;;;;;482217;246;1067;-46
2021/12/18 11:23:26;;;;;;;;;;;20.70;35.30;;;;;;482303;246;1171;-46
2021/12/18 11:25:28;;;;;;;;;;;20.70;35.40;;;;;;482420;246;1074;-46
2021/12/18 11:27:29;;;;;;;;;;;20.70;35.40;;;;;;482303;246;1073;-46
2021/12/18 11:29:30;;;;;;;;;;;20.70;35.40;;;;;;482216;246;1181;-46
2021/12/18 11:31:32;;;;;;;;;;;20.70;35.40;;;;;;482197;246;1050;-46
2021/12/18 11:33:34;;;;;;;;;;;20.70;35.40;;;;;;482313;246;949;-46
2021/12/18 11:35:36;;;;;;;;;;;20.70;35.40;;;;;;482264;246;2353;-46
2021/12/18 11:37:35;;;;;;;;;;;20.70;35.40;;;;;;482120;247;2314;-46
2021/12/18 11:39:37;;;;;;;;;;;20.70;35.40;;;;;;482385;246;1207;-46
2021/12/18 11:41:38;;;;;;;;;;;20.70;35.40;;;;;;482192;246;1245;-46
2021/12/18 11:43:41;;;;;;;;;;;20.70;35.40;;;;;;482400;246;1089;-46
2021/12/18 11:45:41;;;;;;;;;;;20.60;35.40;;;;;;482141;247;2172;-46
2021/12/18 11:47:42;;;;;;;;;;;20.60;35.50;;;;;;482209;246;1215;-46
2021/12/18 11:49:43;;;;;;;;;;;20.70;35.50;;;;;;482264;246;1228;-47
2021/12/18 11:51:45;;;;;;;;;;;20.60;35.40;;;;;;482315;246;1286;-46
2021/12/18 11:53:46;;;;;;;;;;;20.60;35.50;;;;;;482355;246;1207;-46
2021/12/18 11:55:47;;;;;;;;;;;20.60;35.50;;;;;;482292;246;1473;-46
2021/12/18 11:57:49;;;;;;;;;;;20.60;35.50;;;;;;482230;246;2189;-46
2021/12/18 11:59:50;;;;;;;;;;;20.60;35.40;;;;;;482685;246;1076;-46
2021/12/18 12:01:51;;;;;;;;;;;20.60;35.50;;;;;;482332;246;1305;-46
2021/12/18 12:03:53;;;;;;;;;;;20.60;35.50;;;;;;482378;246;1199;-46
2021/12/18 12:05:54;;;;;;;;;;;20.60;35.40;;;;;;482205;246;1446;-47
2021/12/18 12:07:55;;;;;;;;;;;20.60;35.50;;;;;;482516;246;1280;-46
2021/12/18 12:10:05;;;;;;;;;;;20.60;35.50;;;;;;482264;246;1076;-46
2021/12/18 12:11:58;;;;;;;;;;;20.60;35.60;;;;;;481685;247;2319;-46
2021/12/18 12:13:59;;;;;;;;;;;20.60;35.50;;;;;;482545;246;1034;-47
2021/12/18 12:16:01;;;;;;;;;;;20.60;35.50;;;;;;482229;246;1374;-46
2021/12/18 12:18:02;;;;;;;;;;;20.50;35.50;;;;;;482450;246;2322;-45
2021/12/18 12:20:03;;;;;;;;;;;20.60;35.60;;;;;;482438;246;1089;-46
2021/12/18 12:22:04;;;;;;;;;;;20.50;35.60;;;;;;482207;246;1406;-45
2021/12/18 12:24:06;;;;;;;;;;;20.50;35.60;;;;;;482309;246;1586;-46
2021/12/18 12:26:07;;;;;;;;;;;20.50;35.60;;;;;;482269;246;1384;-46